• Join FlightAware (Why Join?)
  • Login
  • US Flag 
Gobble Gobble! 
08:11AM EST


 

Airport Tracker/Info


-or-


 

Live Flight TrackerFlight Track Log ✈ SWA3608 ✈ 05-Apr-2014 ✈ KRSW - KMCI

Flight Track Log - Related Links

Times and Time Zones

All times are in EDT time to prevent confusion due to time zone crossing. See the SWA3608 flight status page for this flight to view local times or setup timezone preferences in your user account.

Time Position Orientation Groundspeed Altitude Reporting Facility
EDT Latitude Longitude Course Direction KTS MPH feet Rate Location/Type
06:38PM 26.6503 -81.8628 16° North 289 333 8,200  Level Miami Center
06:39PM 26.7306 -81.8383 15° North 289 333 10,700 2,040 Climbing Miami Center
06:40PM 26.8144 -81.8278 North 309 356 12,300 1,920 Climbing Miami Center
06:41PM 26.5783 -81.7525 North  Level FlightAware Approximate
06:41PM 26.9144 -81.8322 358° North 346 398 14,600  Level Miami Center
06:42PM 26.6776 -81.7500 North  Level FlightAware Approximate
06:42PM 27.0292 -81.8372 358° North 364 419 16,900  Level Miami Center
06:43PM 27.1375 -81.8417 358° North 374 430 17,900 1,200 Climbing Miami Center
06:44PM 27.2478 -81.8489 357° North 386 444 19,400 1,740 Climbing Miami Center
06:45PM 27.3494 -81.8625 353° North 402 463 21,400 1,920 Climbing Miami Center
06:46PM 27.4550 -81.8881 348° North 402 463 23,300 1,560 Climbing Miami Center
06:47PM 27.5794 -81.9172 348° North 409 471 24,600 960 Climbing Miami Center
06:49PM 27.7689 -81.9639 348° North 408 470 26,000 480 Climbing Jacksonville Center
06:50PM 27.8775 -81.9864 350° North 413 475 26,000  Level Jacksonville Center
06:51PM 27.9864 -82.0158 347° North 408 470 26,000  Level Jacksonville Center
06:52PM 28.0828 -82.0739 332° Northwest 398 458 26,000  Level Jacksonville Center
06:53PM 28.1789 -82.1367 330° Northwest 393 452 26,000 540 Level Jacksonville Center
06:54PM 28.2775 -82.1997 331° Northwest 393 452 27,100 1,380 Climbing Jacksonville Center
06:55PM 28.3717 -82.2603 331° Northwest 399 459 28,800 1,800 Climbing Jacksonville Center
06:56PM 28.4783 -82.3258 332° Northwest 394 453 30,700 1,560 Climbing Jacksonville Center
06:57PM 28.5664 -82.3844 330° Northwest 388 447 32,000 600 Climbing Jacksonville Center
06:58PM 28.6375 -82.4336 329° Northwest 376 433 32,000  Level Jacksonville Center
06:59PM 28.7211 -82.5233 317° Northwest 360 414 32,000  Level Jacksonville Center
07:00PM 28.7944 -82.6036 316° Northwest 355 409 32,000  Level Jacksonville Center
07:01PM 28.8678 -82.6839 316° Northwest 360 414 32,000  Level Jacksonville Center
07:02PM 28.9428 -82.7669 316° Northwest 360 414 32,000  Level Jacksonville Center
07:03PM 29.0181 -82.8475 317° Northwest 360 414 32,000  Level Jacksonville Center
07:04PM 29.0911 -82.9283 316° Northwest 360 414 32,000 -60 Level Jacksonville Center
07:05PM 29.1642 -83.0092 316° Northwest 360 414 31,900 420 Descending Jacksonville Center
07:06PM 29.2331 -83.0831 317° Northwest 348 400 32,900 1,020 Climbing Jacksonville Center
07:07PM 29.2956 -83.1544 315° West 335 386 34,000 540 Climbing Jacksonville Center
07:08PM 29.3642 -83.2286 317° Northwest 328 377 34,000 -60 Level Jacksonville Center
07:09PM 29.4267 -83.3003 315° West 328 377 33,900  Descending Jacksonville Center
07:10PM 29.4764 -83.3911 302° West 328 377 34,000  Climbing Jacksonville Center
07:11PM 29.5261 -83.4822 302° West 328 377 34,000  Level Jacksonville Center
07:12PM 29.5694 -83.5636 301° West 334 384 34,000  Level Jacksonville Center
07:13PM 29.6192 -83.6522 303° West 334 384 34,000 -60 Level Jacksonville Center
07:14PM 29.6686 -83.7436 302° West 339 390 33,900  Descending Jacksonville Center
07:15PM 29.7203 -83.8347 303° West 339 390 34,000  Climbing Jacksonville Center
07:16PM 29.7717 -83.9286 302° West 339 390 34,000  Level Jacksonville Center
07:17PM 29.8231 -84.0178 304° West 339 390 34,000  Level Jacksonville Center
07:18PM 29.8767 -84.1094 304° West 344 396 34,000  Level Jacksonville Center
07:19PM 29.9300 -84.1986 305° West 344 396 34,000  Level Jacksonville Center
07:20PM 29.9833 -84.2906 304° West 344 396 34,000  Level Jacksonville Center
07:21PM 30.0386 -84.3825 305° West 351 404 34,000 -60 Level Jacksonville Center
07:22PM 30.0917 -84.4769 303° West 351 404 33,900 -60 Descending Jacksonville Center
07:23PM 30.1428 -84.5619 305° West 344 396 33,900  Level Jacksonville Center
07:24PM 30.1981 -84.6469 307° West 339 390 34,000  Climbing Jacksonville Center
07:25PM 30.2533 -84.7322 307° West 339 390 34,000  Level Jacksonville Center
07:26PM 30.3061 -84.8197 305° West 339 390 34,000 -60 Level Jacksonville Center
07:27PM 30.3633 -84.9075 307° West 339 390 33,900 -60 Descending Jacksonville Center
07:28PM 30.4161 -84.9956 305° West 339 390 33,900  Level Jacksonville Center
07:29PM 30.4692 -85.0786 307° West 339 390 34,000  Climbing Jacksonville Center
07:30PM 30.5219 -85.1617 306° West 334 384 33,900  Descending Jacksonville Center
07:31PM 30.5789 -85.2500 307° West 334 384 34,000  Climbing Jacksonville Center
07:32PM 30.6336 -85.3311 308° West 334 384 34,000  Level Jacksonville Center
07:33PM 30.6903 -85.4194 307° West 334 384 34,000 -60 Level Jacksonville Center
07:34PM 30.7472 -85.5031 308° West 334 384 33,900  Descending Jacksonville Center
07:35PM 30.8208 -85.5728 321° Northwest 334 384 34,000  Climbing Jacksonville Center
07:36PM 30.8903 -85.6425 319° Northwest 334 384 34,000  Level Jacksonville Center
07:37PM 30.9575 -85.7147 317° Northwest 334 384 34,000  Level Jacksonville Center
07:38PM 31.0250 -85.7847 318° Northwest 334 384 34,000  Level Jacksonville Center
07:40PM 31.1397 -85.9117 317° Northwest 332 382 34,000  Level Atlanta Center
07:41PM 31.2117 -85.9883 318° Northwest 338 389 34,000  Level Atlanta Center
07:42PM 31.2856 -86.0678 317° Northwest 344 396 34,000  Level Atlanta Center
07:43PM 31.3572 -86.1447 317° Northwest 344 396 34,000  Level Atlanta Center
07:44PM 31.4289 -86.2267 316° Northwest 344 396 34,000  Level Atlanta Center
07:45PM 31.5006 -86.3014 318° Northwest 344 396 34,000  Level Atlanta Center
07:46PM 31.5722 -86.3811 317° Northwest 349 402 34,000  Level Atlanta Center
07:47PM 31.6456 -86.4611 317° Northwest 349 402 34,000 840 Level Atlanta Center
07:48PM 31.7172 -86.5389 317° Northwest 349 402 35,700 960 Climbing Atlanta Center
07:49PM 31.7825 -86.6089 318° Northwest 341 392 36,000 120 Climbing Atlanta Center
07:50PM 31.8519 -86.6844 317° Northwest 336 387 36,000  Level Atlanta Center
07:51PM 31.9192 -86.7597 316° Northwest 336 387 36,000  Level Atlanta Center
07:52PM 31.9883 -86.8328 318° Northwest 342 394 36,000  Level Atlanta Center
07:53PM 32.0575 -86.9108 316° Northwest 342 394 36,000  Level Atlanta Center
07:54PM 32.1225 -86.9867 315° West 342 394 36,000  Level Atlanta Center
07:55PM 32.1939 -87.0600 319° Northwest 342 394 36,000  Level Atlanta Center
07:56PM 32.2631 -87.1361 317° Northwest 342 394 36,000  Level Atlanta Center
07:57PM 32.3300 -87.2122 316° Northwest 342 394 36,000  Level Atlanta Center
07:58PM 32.3947 -87.2833 317° Northwest 337 388 36,000  Level Atlanta Center
07:59PM 32.4597 -87.3572 316° Northwest 347 399 36,000  Level Atlanta Center
08:00PM 32.5306 -87.4336 318° Northwest 338 389 36,000  Level Atlanta Center
08:02PM 32.6633 -87.5831 317° Northwest 330 380 36,000  Level Memphis Center
08:03PM 32.7356 -87.6661 316° Northwest 330 380 36,000  Level Memphis Center
08:04PM 32.8011 -87.7408 316° Northwest 329 379 36,000  Level Memphis Center
08:05PM 32.8681 -87.8153 317° Northwest 329 379 36,000  Level Memphis Center
08:06PM 32.9347 -87.8917 316° Northwest 329 379 36,000  Level Memphis Center
08:07PM 33.0008 -87.9664 317° Northwest 329 379 36,000  Level Memphis Center
08:08PM 33.0675 -88.0428 316° Northwest 329 379 36,000  Level Memphis Center
08:09PM 33.1342 -88.1203 316° Northwest 330 380 36,000  Level Memphis Center
08:10PM 33.2147 -88.2111 317° Northwest 330 380 36,000  Level Memphis Center
08:11PM 33.2797 -88.2867 316° Northwest 330 380 36,000  Level Memphis Center
08:12PM 33.3472 -88.3631 317° Northwest 332 382 36,000  Level Memphis Center
08:13PM 33.4131 -88.4389 316° Northwest 332 382 36,000  Level Memphis Center
08:14PM 33.4783 -88.5147 316° Northwest 332 382 36,000  Level Memphis Center
08:15PM 33.5478 -88.5958 316° Northwest 332 382 36,000  Level Memphis Center
08:16PM 33.6142 -88.6731 316° Northwest 332 382 36,000  Level Memphis Center
08:17PM 33.6811 -88.7494 316° Northwest 332 382 36,000  Level Memphis Center
08:18PM 33.7542 -88.8361 315° West 332 382 36,000  Level Memphis Center
08:19PM 33.8211 -88.9144 316° Northwest 331 381 36,000  Level Memphis Center
08:20PM 33.8872 -88.9900 317° Northwest 331 381 36,000  Level Memphis Center
08:21PM 33.9528 -89.0686 315° West 331 381 36,000  Level Memphis Center
08:22PM 34.0186 -89.1458 316° Northwest 331 381 36,000  Level Memphis Center
08:23PM 34.0842 -89.2236 316° Northwest 331 381 36,000  Level Memphis Center
08:24PM 34.1503 -89.3006 316° Northwest 331 381 36,000  Level Memphis Center
08:25PM 34.2164 -89.3803 315° West 331 381 36,000  Level Memphis Center
08:26PM 34.2828 -89.4581 316° Northwest 331 381 36,000  Level Memphis Center
08:27PM 34.3489 -89.5381 315° West 332 382 36,000  Level Memphis Center
08:28PM 34.4147 -89.6169 315° West 332 382 36,000  Level Memphis Center
08:29PM 34.4944 -89.7128 315° West 332 382 36,000  Level Memphis Center
08:30PM 34.5603 -89.7925 315° West 332 382 36,000  Level Memphis Center
08:31PM 34.6272 -89.8728 315° West 332 382 36,000  Level Memphis Center
08:32PM 34.6936 -89.9531 315° West 333 383 36,000  Level Memphis Center
08:33PM 34.7608 -90.0336 315° West 333 383 36,000  Level Memphis Center
08:34PM 34.8272 -90.1147 315° West 333 383 36,000  Level Memphis Center
08:35PM 34.8939 -90.1947 315° West 333 383 36,000  Level Memphis Center
08:36PM 34.9600 -90.2758 315° West 333 383 36,000  Level Memphis Center
08:37PM 35.0272 -90.3558 316° Northwest 334 384 36,000  Level Memphis Center
08:38PM 35.0944 -90.4386 315° West 337 388 36,000  Level Memphis Center
08:39PM 35.1614 -90.5211 315° West 338 389 36,000  Level Memphis Center
08:40PM 35.2286 -90.6047 315° West 339 390 36,000  Level Memphis Center
08:41PM 35.2953 -90.6869 315° West 339 390 36,000  Level Memphis Center
08:42PM 35.3622 -90.7694 315° West 339 390 36,000  Level Memphis Center
08:44PM 35.4289 -90.8531 314° West 340 391 36,000  Level Memphis Center
08:45PM 35.4956 -90.9339 315° West 340 391 36,000  Level Memphis Center
08:46PM 35.5750 -91.0319 315° West 339 390 36,000  Level Memphis Center
08:47PM 35.6397 -91.1150 314° West 339 390 36,000  Level Memphis Center
08:48PM 35.7089 -91.2003 315° West 339 390 36,000  Level Memphis Center
08:49PM 35.7756 -91.2844 314° West 340 391 36,000  Level Memphis Center
08:50PM 35.8422 -91.3675 315° West 340 391 36,000  Level Memphis Center
08:51PM 35.8989 -91.4411 314° West 340 391 36,000  Level Memphis Center
08:52PM 35.9761 -91.5367 315° West 345 397 36,000  Level Memphis Center
08:53PM 36.0419 -91.6214 314° West 345 397 36,000  Level Memphis Center
08:54PM 36.1094 -91.7075 314° West 345 397 36,000  Level Memphis Center
08:55PM 36.1764 -91.7933 314° West 345 397 36,000  Level Memphis Center
08:56PM 36.2489 -91.8858 314° West 351 404 36,000  Level Memphis Center
08:57PM 36.3164 -91.9708 315° West 351 404 36,000  Level Memphis Center
08:58PM 36.3850 -92.0592 314° West 351 404 36,000  Level Memphis Center
08:59PM 36.4525 -92.1472 314° West 352 405 36,000  Level Memphis Center
09:00PM 36.5186 -92.2331 314° West 353 406 36,000  Level Memphis Center
09:01PM 36.5881 -92.3231 314° West 353 406 36,000  Level Memphis Center
09:02PM 36.6711 -92.4319 314° West 355 409 36,000  Level Memphis Center
09:03PM 36.7417 -92.5222 314° West 358 412 36,000  Level Memphis Center
09:04PM 36.8108 -92.6136 313° West 358 412 36,000  Level Memphis Center
09:05PM 36.8803 -92.7044 314° West 358 412 36,000  Level Memphis Center
09:06PM 36.9506 -92.7969 314° West 360 414 36,000  Level Memphis Center
09:07PM 37.0222 -92.8903 314° West 363 418 36,000  Level Memphis Center
09:08PM 37.0919 -92.9844 313° West 364 419 36,000  Level Memphis Center
09:09PM 37.1783 -93.0978 314° West 366 421 36,000  Level Kansas City Center
09:10PM 37.2494 -93.1925 313° West 367 422 36,000  Level Kansas City Center
09:11PM 37.3214 -93.2872 314° West 367 422 36,000  Level Kansas City Center
09:12PM 37.4092 -93.3644 325° Northwest 389 448 36,000  Level Kansas City Center
09:13PM 37.5128 -93.4208 337° Northwest 402 463 36,000  Level Kansas City Center
09:14PM 37.6161 -93.4783 336° Northwest 402 463 36,000  Level Kansas City Center
09:15PM 37.7206 -93.5367 336° Northwest 403 464 36,000  Level Kansas City Center
09:16PM 37.8242 -93.5956 336° Northwest 404 465 36,000  Level Kansas City Center
09:17PM 37.9289 -93.6544 336° Northwest 404 465 36,000 -1,020 Level Kansas City Center
09:18PM 38.0339 -93.7119 337° Northwest 407 468 34,000 -2,340 Descending Kansas City Center
09:19PM 38.1350 -93.7714 335° Northwest 403 464 31,300 -2,460 Descending Kansas City Center
09:20PM 38.2375 -93.8294 336° Northwest 403 464 29,100 -2,400 Descending Kansas City Center
09:21PM 38.3533 -93.8931 337° Northwest 383 441 26,500 -2,280 Descending Kansas City Center
09:22PM 38.4447 -93.9458 336° Northwest 368 423 24,500 -1,920 Descending Kansas City Center
09:23PM 38.5333 -93.9961 336° Northwest 360 414 22,600 -1,860 Descending Kansas City Center
09:24PM 38.6161 -94.0422 336° Northwest 343 395 20,800 -1,920 Descending Kansas City Center
09:25PM 38.7075 -94.1042 332° Northwest 338 389 18,800 -1,860 Descending Kansas City Center
09:26PM 38.7714 -94.1761 319° Northwest 321 369 17,100 -1,740 Descending Kansas City Center
09:28PM 38.8344 -94.2453 319° Northwest 316 364 15,300 -1,860 Descending Kansas City Center
09:29PM 38.9075 -94.3244 320° Northwest 311 358 13,300 -1,680 Descending Kansas City Center
09:30PM 38.9667 -94.3886 320° Northwest 295 339 12,000 -1,380 Descending Kansas City Center
09:31PM 39.0325 -94.4606 320° Northwest 278 320 10,500 -1,500 Descending Kansas City Center
09:32PM 39.0883 -94.5206 320° Northwest 275 316 9,000 -1,560 Descending Kansas City Center
09:33PM 39.1428 -94.5808 319° Northwest 273 314 7,400 -1,860 Descending Kansas City Center
09:34PM 39.2128 -94.6283 332° Northwest 277 319 5,300 -1,740 Descending Kansas City Center
09:35PM 39.2825 -94.6097 12° North 271 312 3,900 -1,080 Descending Kansas City Center
09:36PM 39.3444 -94.5933 12° North 240 276 3,200 -600 Descending Kansas City Center
09:37PM 39.3814 -94.6594 306° West 208 239 2,700 -660 Descending Kansas City Center
09:38PM 39.3533 -94.6881 218° Southwest 141 162 1,900 -780 Descending Kansas City Center
09:39PM 39.3136 -94.6992 192° South 131 151 1,200 -720 Descending Kansas City Center